Hart, Michigan
Current Conditions -  °F | °C
As of 7:55 AM on Friday 24 Oct 2014 (Local Time) from KLDM Reporting Station
Haze Haze  
Wind Chill: 52°   Ceiling: 900
Heat Index: 52°   Visibility: 5mi
Dew Point: 50°   Wind: 0mph
Humidity: 94%   Direction: NA
Pressure: 30.02"   Gusts: NA
Location:  43.7°N, 86.36°W
Report Text: KLDM 241155Z AUTO 00000KT 5SM BR OVC009 11/10 A3002 RMK AO2 T01100100 10111 20103
Loading
Personal Weather Stations






























Interactive Weather Map
Tropical Storm Tracking
New forecast layout! Learn more

10-Day Weather Forecast

Advertisements
Track Severe Weather on mobile